Startpagina
METAR-TAF:

METAR-TAF

Vliegvelden :

Agartala, India

breedte: 23-53-24N, lengte: 91-14-32E, hoogte: 14 m

Actueel weer

Dit bericht is 36 minuten geleden gemaakt, om 09:30 UTC
Weinig wind
Temperatuur 31°C
Vochtigheid 75%
Druk 1009 hPa
Zicht: 5000 m
Verspreide wolken op 1800 ft
Weinig wolken op 3000 ft, Cumulonimbus.
Gebroken wolken op 10000 ft
nevel

METAR: VEAT 230930Z 00000KT 5000 BR SCT018 FEW030CB BKN100 31/26 Q1009 NOSIG

Tijdstip: 15:36 (10:06 UTC)


TAF: ontbreekt

Waarnemingen en weersverwachtingen van meer dan 4000 vliegvelden (METAR en TAF).

De beschikbare stations zijn de gele en rode punten op de kaart.

Ga met uw muis naar het station om de naam te zien.

Klik dan om waarnemingen en weersverwachtingen te zien.

kaart wijzigen: klik op de groene knoppen met een zwart kruis om in te zoomen, op de groene knop met een streepje om uit te zoomen of op de groene pijlen voor aangrenzende kaarten.


METAR-TAF: